Latest Weather Observations for Lord Howe Island Windy Point

IDN60801

Issued at 4:03 am EST Wednesday 27 September 2017 (issued every 30 minutes, with the page automatically refreshed every 10 minutes)

About weather observations | Map of weather stations | Latest weather observations for NSW | Other Formats
Station Details ID: 200715 Name: LORD HOWE ISLAND WINDY POINT Lat: -31.54 Lon: 159.07 Height: 4.0 m
Data from the previous 72 hours. | See also: Recent months for locations in New South Wales
Date/Time
EST
Temp
°C
App
Temp
°C
Dew
Point
°C
Rel
Hum
%
Delta-T
°C
Wind Press
QNH
hPa
Press
MSL
hPa
Rain since
9am
mm
Dir  Spd
km/h
Gust
km/h
Spd
kts
Gust
kts
27/04:00am - - - - - SSW 33 43 18 23 - - -
27/03:30am - - - - - SW 35 43 19 23 - - -
27/03:00am - - - - - SW 37 46 20 25 - - -
27/02:30am - - - - - SW 39 46 21 25 - - -
27/02:00am - - - - - SW 41 48 22 26 - - -
27/01:30am - - - - - SW 39 46 21 25 - - -
27/01:00am - - - - - SW 35 43 19 23 - - -
27/12:30am - - - - - SW 37 46 20 25 - - -
27/12:00am - - - - - SW 37 44 20 24 - - -
 
Date/Time
EST
Temp
°C
App
Temp
°C
Dew
Point
°C
Rel
Hum
%
Delta-T
°C
Wind Press
QNH
hPa
Press
MSL
hPa
Rain since
9am
mm
Dir  Spd
km/h
Gust
km/h
Spd
kts
Gust
kts
26/11:30pm - - - - - SW 33 41 18 22 - - -
26/11:00pm - - - - - SW 28 35 15 19 - - -
26/10:30pm - - - - - SW 30 35 16 19 - - -
26/10:00pm - - - - - SW 24 30 13 16 - - -
26/09:30pm - - - - - SSW 30 33 16 18 - - -
26/09:00pm - - - - - SSW 22 30 12 16 - - -
26/08:30pm - - - - - SSW 26 35 14 19 - - -
26/08:00pm - - - - - SSW 17 20 9 11 - - -
26/07:30pm - - - - - SSW 17 20 9 11 - - -
26/07:00pm - - - - - SSW 22 28 12 15 - - -
26/06:30pm - - - - - SSW 26 30 14 16 - - -
26/06:00pm - - - - - SSW 26 32 14 17 - - -
26/05:30pm - - - - - SSW 26 32 14 17 - - -
26/05:00pm - - - - - SSW 24 30 13 16 - - -
26/04:30pm - - - - - SSW 24 33 13 18 - - -
26/04:00pm - - - - - SW 20 24 11 13 - - -
26/03:30pm - - - - - SW 24 28 13 15 - - -
26/03:00pm - - - - - SW 19 24 10 13 - - -
26/02:30pm - - - - - SW 20 22 11 12 - - -
26/02:00pm - - - - - SW 20 24 11 13 - - -
26/01:30pm - - - - - SW 20 24 11 13 - - -
26/01:00pm - - - - - SW 20 24 11 13 - - -
26/12:30pm - - - - - SW 20 22 11 12 - - -
26/12:00pm - - - - - SW 19 22 10 12 - - -
26/11:30am - - - - - SW 17 20 9 11 - - -
26/11:00am - - - - - SW 19 20 10 11 - - -
26/10:30am - - - - - SW 20 24 11 13 - - -
26/10:00am - - - - - SSW 22 28 12 15 - - -
26/09:30am - - - - - SW 22 28 12 15 - - -
26/09:00am - - - - - SW 20 26 11 14 - - -
26/08:30am - - - - - SW 20 24 11 13 - - -
26/08:00am - - - - - SSW 20 26 11 14 - - -
26/07:30am - - - - - SSW 30 41 16 22 - - -
26/07:00am - - - - - SSW 20 30 11 16 - - -
26/06:30am - - - - - SSW 17 22 9 12 - - -
26/06:00am - - - - - WSW 20 26 11 14 - - -
26/05:30am - - - - - W 26 33 14 18 - - -
26/05:00am - - - - - WNW 22 28 12 15 - - -
26/04:30am - - - - - NW 24 30 13 16 - - -
26/04:00am - - - - - NW 26 32 14 17 - - -
26/03:30am - - - - - NW 28 35 15 19 - - -
26/03:00am - - - - - WNW 32 41 17 22 - - -
26/02:30am - - - - - NNW 22 30 12 16 - - -
26/02:00am - - - - - NW 20 33 11 18 - - -
26/01:30am - - - - - NW 19 28 10 15 - - -
26/01:00am - - - - - NW 30 43 16 23 - - -
26/12:30am - - - - - NW 26 35 14 19 - - -
26/12:00am - - - - - WNW 28 35 15 19 - - -
 
Date/Time
EST
Temp
°C
App
Temp
°C
Dew
Point
°C
Rel
Hum
%
Delta-T
°C
Wind Press
QNH
hPa
Press
MSL
hPa
Rain since
9am
mm
Dir  Spd
km/h
Gust
km/h
Spd
kts
Gust
kts
25/11:30pm - - - - - WNW 26 35 14 19 - - -
25/11:00pm - - - - - WNW 24 30 13 16 - - -
25/10:30pm - - - - - W 17 19 9 10 - - -
25/10:00pm - - - - - W 22 24 12 13 - - -
25/09:30pm - - - - - WNW 26 32 14 17 - - -
25/09:00pm - - - - - WNW 26 33 14 18 - - -
25/08:30pm - - - - - WNW 20 28 11 15 - - -
25/08:00pm - - - - - WNW 20 30 11 16 - - -
25/07:30pm - - - - - WSW 15 20 8 11 - - -
25/07:00pm - - - - - NW 32 56 17 30 - - -
25/06:30pm - - - - - NW 35 65 19 35 - - -
25/06:00pm - - - - - NW 35 63 19 34 - - -
25/05:30pm - - - - - NW 37 59 20 32 - - -
25/05:00pm - - - - - NW 35 65 19 35 - - -
25/04:30pm - - - - - NW 33 54 18 29 - - -
25/04:00pm - - - - - NW 35 65 19 35 - - -
25/03:30pm - - - - - NNW 44 65 24 35 - - -
25/03:00pm - - - - - NNW 46 72 25 39 - - -
25/02:30pm - - - - - NW 41 69 22 37 - - -
25/02:00pm - - - - - NNW 35 74 19 40 - - -
25/01:30pm - - - - - NW 39 59 21 32 - - -
25/01:00pm - - - - - NW 39 63 21 34 - - -
25/12:30pm - - - - - NW 32 67 17 36 - - -
25/12:25pm - - - - - NNW 26 67 14 36 - - -
25/12:18pm - - - - - NNW 24 46 13 25 - - -
25/12:00pm - - - - - NNW 39 72 21 39 - - -
25/11:30am - - - - - NNW 33 63 18 34 - - -
25/11:26am - - - - - N 24 57 13 31 - - -
25/11:25am - - - - - N 22 57 12 31 - - -
25/11:22am - - - - - NNW 22 57 12 31 - - -
25/11:00am - - - - - NW 28 48 15 26 - - -
25/10:37am - - - - - NW 30 48 16 26 - - -
25/10:30am - - - - - NW 26 41 14 22 - - -
25/10:00am - - - - - NW 33 57 18 31 - - -
25/09:30am - - - - - NW 35 59 19 32 - - -
25/09:01am - - - - - NW 30 54 16 29 - - -
25/09:00am - - - - - NW 30 46 16 25 - - -
25/08:30am - - - - - NW 32 50 17 27 - - -
25/08:09am - - - - - NNW 24 54 13 29 - - -
25/08:00am - - - - - N 19 50 10 27 - - -
25/07:30am - - - - - NW 35 61 19 33 - - -
25/07:00am - - - - - NW 28 50 15 27 - - -
25/06:59am - - - - - NW 28 50 15 27 - - -
25/06:30am - - - - - NNE 17 32 9 17 - - -
25/06:00am - - - - - N 13 33 7 18 - - -
25/05:30am - - - - - NNE 19 35 10 19 - - -
25/05:00am - - - - - NNE 22 37 12 20 - - -
25/04:30am - - - - - NNE 20 35 11 19 - - -
25/04:00am - - - - - NE 7 15 4 8 - - -
25/03:30am - - - - - WNW 20 26 11 14 - - -
25/03:00am - - - - - W 24 30 13 16 - - -
25/02:30am - - - - - W 22 30 12 16 - - -
25/02:00am - - - - - NW 15 37 8 20 - - -
25/01:30am - - - - - NW 20 32 11 17 - - -
25/01:00am - - - - - NNW 22 37 12 20 - - -
25/12:30am - - - - - WNW 26 46 14 25 - - -
25/12:00am - - - - - NW 19 44 10 24 - - -
 
Date/Time
EST
Temp
°C
App
Temp
°C
Dew
Point
°C
Rel
Hum
%
Delta-T
°C
Wind Press
QNH
hPa
Press
MSL
hPa
Rain since
9am
mm
Dir  Spd
km/h
Gust
km/h
Spd
kts
Gust
kts
24/11:35pm - - - - - NW 37 56 20 30 - - -
24/11:30pm - - - - - NW 37 56 20 30 - - -
24/11:04pm - - - - - NW 28 50 15 27 - - -
24/11:00pm - - - - - NW 26 43 14 23 - - -
24/10:31pm - - - - - NW 28 46 15 25 - - -
24/10:30pm - - - - - NNW 26 46 14 25 - - -
24/10:00pm - - - - - NW 30 61 16 33 - - -
24/09:30pm - - - - - NW 37 69 20 37 - - -
24/09:29pm - - - - - NW 35 69 19 37 - - -
24/09:04pm - - - - - NW 28 50 15 27 - - -
24/09:00pm - - - - - NW 24 41 13 22 - - -
24/08:30pm - - - - - NW 28 46 15 25 - - -
24/08:21pm - - - - - NW 28 46 15 25 - - -
24/08:00pm - - - - - NW 20 41 11 22 - - -
24/07:30pm - - - - - NW 24 44 13 24 - - -
24/07:00pm - - - - - NW 20 37 11 20 - - -
24/06:30pm - - - - - NW 20 37 11 20 - - -
24/06:00pm - - - - - NW 24 43 13 23 - - -
24/05:30pm - - - - - NW 20 39 11 21 - - -
24/05:00pm - - - - - NW 20 33 11 18 - - -
24/04:30pm - - - - - NW 22 39 12 21 - - -
24/04:00pm - - - - - NW 24 44 13 24 - - -
24/03:30pm - - - - - NW 32 52 17 28 - - -
24/03:00pm - - - - - NW 30 54 16 29 - - -
24/02:36pm - - - - - NW 32 50 17 27 - - -
24/02:30pm - - - - - NW 35 50 19 27 - - -
24/02:02pm - - - - - NNW 20 48 11 26 - - -
24/02:00pm - - - - - NNW 17 37 9 20 - - -
24/01:55pm - - - - - NNW 24 54 13 29 - - -
24/01:30pm - - - - - NW 41 69 22 37 - - -
24/01:20pm - - - - - NW 46 80 25 43 - - -
24/01:00pm - - - - - NW 30 59 16 32 - - -
24/12:30pm - - - - - NW 32 50 17 27 - - -
24/12:19pm - - - - - NW 28 46 15 25 - - -
24/12:00pm - - - - - NW 24 44 13 24 - - -
24/11:32am - - - - - NW 32 50 17 27 - - -
24/11:30am - - - - - NW 33 50 18 27 - - -
24/11:00am - - - - - NW 35 59 19 32 - - -
24/10:30am - - - - - NW 28 48 15 26 - - -
24/10:26am - - - - - NW 28 46 15 25 - - -
24/10:00am - - - - - NW 24 46 13 25 - - -
24/09:30am - - - - - NW 32 46 17 25 - - -
24/09:02am - - - - - NW 32 50 17 27 - - -
24/09:00am - - - - - NW 33 50 18 27 - - -
24/08:32am - - - - - NW 33 56 18 30 - - -
24/08:30am - - - - - NW 33 48 18 26 - - -
24/08:10am - - - - - NW 28 46 15 25 - - -
24/08:00am - - - - - NW 28 43 15 23 - - -
24/07:30am - - - - - NW 24 43 13 23 - - -
24/07:00am - - - - - WNW 17 33 9 18 - - -
24/06:30am - - - - - NW 19 33 10 18 - - -
24/06:00am - - - - - NW 17 33 9 18 - - -
24/05:30am - - - - - WNW 17 33 9 18 - - -
24/05:00am - - - - - WNW 17 26 9 14 - - -
24/04:30am - - - - - WNW 17 33 9 18 - - -

Other Formats:

Comma delimited format used in spreadsheet applications
http://www.bom.gov.au/fwo/IDN60801/IDN60801.95995.axf

JavaScript Object Notation format (JSON) in row-major order
http://www.bom.gov.au/fwo/IDN60801/IDN60801.95995.json